sensor_id;sensor_type;location;lat;lon;timestamp;pressure;altitude;pressure_sealevel;temperature;humidity
6942;BME280;3510;43.200;27.920;2023-05-12T00:02:09;101623.47;;;18.37;51.14
6942;BME280;3510;43.200;27.920;2023-05-12T00:04:37;101626.72;;;18.48;50.74
6942;BME280;3510;43.200;27.920;2023-05-12T00:07:04;101625.03;;;18.48;50.92
6942;BME280;3510;43.200;27.920;2023-05-12T00:09:31;101622.47;;;18.35;51.30
6942;BME280;3510;43.200;27.920;2023-05-12T00:11:58;101622.25;;;18.19;51.66
6942;BME280;3510;43.200;27.920;2023-05-12T00:14:24;101630.09;;;18.22;51.27
6942;BME280;3510;43.200;27.920;2023-05-12T00:16:51;101622.50;;;18.48;50.74
6942;BME280;3510;43.200;27.920;2023-05-12T00:19:17;101620.19;;;19.04;49.53
6942;BME280;3510;43.200;27.920;2023-05-12T00:21:45;101619.44;;;18.41;51.39
6942;BME280;3510;43.200;27.920;2023-05-12T00:24:12;101617.47;;;18.50;50.84
6942;BME280;3510;43.200;27.920;2023-05-12T00:26:39;101618.81;;;18.96;49.37
6942;BME280;3510;43.200;27.920;2023-05-12T00:29:05;101626.88;;;18.37;50.67
6942;BME280;3510;43.200;27.920;2023-05-12T00:31:32;101624.38;;;18.51;50.75
6942;BME280;3510;43.200;27.920;2023-05-12T00:33:58;101625.03;;;19.28;48.77
6942;BME280;3510;43.200;27.920;2023-05-12T00:36:25;101626.34;;;18.95;49.31
6942;BME280;3510;43.200;27.920;2023-05-12T00:38:53;101624.13;;;18.21;51.07
6942;BME280;3510;43.200;27.920;2023-05-12T00:41:20;101613.34;;;18.38;50.74
6942;BME280;3510;43.200;27.920;2023-05-12T00:43:48;101605.44;;;18.60;50.34
6942;BME280;3510;43.200;27.920;2023-05-12T00:46:15;101612.84;;;18.96;49.55
6942;BME280;3510;43.200;27.920;2023-05-12T00:48:41;101614.16;;;18.37;50.63
6942;BME280;3510;43.200;27.920;2023-05-12T00:51:10;101615.19;;;18.14;51.73
6942;BME280;3510;43.200;27.920;2023-05-12T00:53:37;101624.63;;;18.80;49.81
6942;BME280;3510;43.200;27.920;2023-05-12T00:56:05;101612.75;;;18.81;49.70
6942;BME280;3510;43.200;27.920;2023-05-12T00:58:32;101615.88;;;18.90;49.59
6942;BME280;3510;43.200;27.920;2023-05-12T01:00:58;101615.03;;;18.65;49.96
6942;BME280;3510;43.200;27.920;2023-05-12T01:03:25;101617.72;;;18.93;49.55
6942;BME280;3510;43.200;27.920;2023-05-12T01:05:53;101614.03;;;18.88;49.08
6942;BME280;3510;43.200;27.920;2023-05-12T01:08:21;101608.09;;;18.35;50.33
6942;BME280;3510;43.200;27.920;2023-05-12T01:10:49;101607.75;;;19.24;48.66
6942;BME280;3510;43.200;27.920;2023-05-12T01:13:17;101596.84;;;18.20;51.00
6942;BME280;3510;43.200;27.920;2023-05-12T01:15:45;101603.69;;;18.59;50.49
6942;BME280;3510;43.200;27.920;2023-05-12T01:18:12;101602.81;;;18.85;49.08
6942;BME280;3510;43.200;27.920;2023-05-12T01:20:40;101595.75;;;18.03;50.81
6942;BME280;3510;43.200;27.920;2023-05-12T01:23:07;101602.50;;;18.68;49.61
6942;BME280;3510;43.200;27.920;2023-05-12T01:25:34;101594.50;;;18.23;50.69
6942;BME280;3510;43.200;27.920;2023-05-12T01:28:03;101595.56;;;18.92;49.46
6942;BME280;3510;43.200;27.920;2023-05-12T01:30:31;101598.09;;;18.52;50.08
6942;BME280;3510;43.200;27.920;2023-05-12T01:32:57;101604.66;;;18.48;50.49
6942;BME280;3510;43.200;27.920;2023-05-12T01:35:24;101593.28;;;18.43;50.31
6942;BME280;3510;43.200;27.920;2023-05-12T01:37:51;101593.47;;;18.59;50.52
6942;BME280;3510;43.200;27.920;2023-05-12T01:40:17;101589.66;;;18.79;49.65
6942;BME280;3510;43.200;27.920;2023-05-12T01:42:44;101590.94;;;18.86;49.64
6942;BME280;3510;43.200;27.920;2023-05-12T01:45:12;101589.00;;;18.95;49.25
6942;BME280;3510;43.200;27.920;2023-05-12T01:47:38;101591.47;;;18.80;49.39
6942;BME280;3510;43.200;27.920;2023-05-12T01:50:05;101586.25;;;18.79;49.56
6942;BME280;3510;43.200;27.920;2023-05-12T01:52:32;101588.38;;;18.33;50.81
6942;BME280;3510;43.200;27.920;2023-05-12T01:54:58;101585.53;;;18.68;50.35
6942;BME280;3510;43.200;27.920;2023-05-12T01:57:26;101587.38;;;18.57;50.27
6942;BME280;3510;43.200;27.920;2023-05-12T01:59:52;101582.09;;;18.94;49.50
6942;BME280;3510;43.200;27.920;2023-05-12T02:02:20;101583.97;;;18.70;49.32
6942;BME280;3510;43.200;27.920;2023-05-12T02:04:47;101600.34;;;18.47;50.36
6942;BME280;3510;43.200;27.920;2023-05-12T02:07:13;101587.78;;;18.37;51.01
6942;BME280;3510;43.200;27.920;2023-05-12T02:09:40;101590.25;;;18.35;50.90
6942;BME280;3510;43.200;27.920;2023-05-12T02:12:07;101581.31;;;19.08;49.07
6942;BME280;3510;43.200;27.920;2023-05-12T02:14:33;101586.59;;;18.98;49.31
6942;BME280;3510;43.200;27.920;2023-05-12T02:17:00;101583.19;;;18.45;50.65
6942;BME280;3510;43.200;27.920;2023-05-12T02:19:30;101583.09;;;18.83;49.60
6942;BME280;3510;43.200;27.920;2023-05-12T02:21:56;101574.44;;;18.41;50.77
6942;BME280;3510;43.200;27.920;2023-05-12T02:24:23;101577.91;;;18.55;50.44
6942;BME280;3510;43.200;27.920;2023-05-12T02:26:49;101577.28;;;17.94;51.72
6942;BME280;3510;43.200;27.920;2023-05-12T02:29:16;101581.06;;;18.12;51.26
6942;BME280;3510;43.200;27.920;2023-05-12T02:31:42;101578.50;;;18.12;51.48
6942;BME280;3510;43.200;27.920;2023-05-12T02:34:09;101575.44;;;18.43;50.23
6942;BME280;3510;43.200;27.920;2023-05-12T02:36:36;101566.59;;;18.65;49.92
6942;BME280;3510;43.200;27.920;2023-05-12T02:39:03;101578.25;;;18.61;50.15
6942;BME280;3510;43.200;27.920;2023-05-12T02:41:30;101573.47;;;18.66;50.04
6942;BME280;3510;43.200;27.920;2023-05-12T02:43:57;101571.13;;;18.95;49.22
6942;BME280;3510;43.200;27.920;2023-05-12T02:46:24;101577.03;;;18.81;49.49
6942;BME280;3510;43.200;27.920;2023-05-12T02:48:50;101592.78;;;18.49;49.71
6942;BME280;3510;43.200;27.920;2023-05-12T02:51:17;101583.22;;;18.84;49.07
6942;BME280;3510;43.200;27.920;2023-05-12T02:53:45;101586.59;;;18.32;50.41
6942;BME280;3510;43.200;27.920;2023-05-12T02:56:12;101602.31;;;18.51;49.36
6942;BME280;3510;43.200;27.920;2023-05-12T02:58:39;101587.50;;;18.59;49.18
6942;BME280;3510;43.200;27.920;2023-05-12T03:01:06;101593.47;;;18.46;49.80
6942;BME280;3510;43.200;27.920;2023-05-12T03:03:36;101588.00;;;18.93;49.04
6942;BME280;3510;43.200;27.920;2023-05-12T03:06:03;101591.34;;;18.92;49.14
6942;BME280;3510;43.200;27.920;2023-05-12T03:08:30;101594.16;;;18.44;49.90
6942;BME280;3510;43.200;27.920;2023-05-12T03:10:58;101597.44;;;18.81;48.78
6942;BME280;3510;43.200;27.920;2023-05-12T03:13:25;101596.84;;;18.85;49.33
6942;BME280;3510;43.200;27.920;2023-05-12T03:15:52;101597.72;;;18.99;48.44
6942;BME280;3510;43.200;27.920;2023-05-12T03:18:25;101598.13;;;18.78;49.03
6942;BME280;3510;43.200;27.920;2023-05-12T03:20:52;101596.25;;;19.02;48.24
6942;BME280;3510;43.200;27.920;2023-05-12T03:23:20;101597.06;;;19.57;47.15
6942;BME280;3510;43.200;27.920;2023-05-12T03:25:47;101590.69;;;19.23;47.94
6942;BME280;3510;43.200;27.920;2023-05-12T03:28:14;101592.81;;;19.43;47.40
6942;BME280;3510;43.200;27.920;2023-05-12T03:30:42;101600.81;;;19.49;46.79
6942;BME280;3510;43.200;27.920;2023-05-12T03:33:09;101627.09;;;18.41;49.29
6942;BME280;3510;43.200;27.920;2023-05-12T03:35:35;101612.97;;;19.53;47.07
6942;BME280;3510;43.200;27.920;2023-05-12T03:38:02;101606.72;;;19.07;47.76
6942;BME280;3510;43.200;27.920;2023-05-12T03:40:28;101608.47;;;20.05;45.56
6942;BME280;3510;43.200;27.920;2023-05-12T03:42:55;101613.09;;;19.55;45.98
6942;BME280;3510;43.200;27.920;2023-05-12T03:45:23;101598.16;;;19.20;46.86
6942;BME280;3510;43.200;27.920;2023-05-12T03:47:49;101601.25;;;19.42;46.74
6942;BME280;3510;43.200;27.920;2023-05-12T03:50:16;101603.28;;;20.34;44.78
6942;BME280;3510;43.200;27.920;2023-05-12T03:52:42;101604.25;;;19.50;46.18
6942;BME280;3510;43.200;27.920;2023-05-12T03:55:09;101597.41;;;19.21;46.94
6942;BME280;3510;43.200;27.920;2023-05-12T03:57:35;101599.72;;;19.59;46.19
6942;BME280;3510;43.200;27.920;2023-05-12T04:00:02;101602.34;;;19.61;45.57
6942;BME280;3510;43.200;27.920;2023-05-12T04:02:31;101597.25;;;19.32;46.30
6942;BME280;3510;43.200;27.920;2023-05-12T04:04:57;101601.09;;;19.67;45.33
6942;BME280;3510;43.200;27.920;2023-05-12T04:07:24;101597.94;;;19.71;44.79
6942;BME280;3510;43.200;27.920;2023-05-12T04:09:51;101607.38;;;19.59;45.24
6942;BME280;3510;43.200;27.920;2023-05-12T04:12:17;101603.56;;;19.66;45.07
6942;BME280;3510;43.200;27.920;2023-05-12T04:14:44;101614.06;;;19.16;45.36
6942;BME280;3510;43.200;27.920;2023-05-12T04:17:10;101604.13;;;19.90;44.49
6942;BME280;3510;43.200;27.920;2023-05-12T04:19:38;101606.81;;;20.06;44.35
6942;BME280;3510;43.200;27.920;2023-05-12T04:22:05;101618.47;;;20.60;43.88
6942;BME280;3510;43.200;27.920;2023-05-12T04:24:31;101613.69;;;20.22;43.99
6942;BME280;3510;43.200;27.920;2023-05-12T04:26:58;101608.53;;;19.77;44.73
6942;BME280;3510;43.200;27.920;2023-05-12T04:29:24;101609.19;;;20.18;44.27
6942;BME280;3510;43.200;27.920;2023-05-12T04:31:52;101611.34;;;19.82;44.98
6942;BME280;3510;43.200;27.920;2023-05-12T04:34:19;101607.38;;;19.87;44.50
6942;BME280;3510;43.200;27.920;2023-05-12T04:36:47;101605.78;;;20.17;44.07
6942;BME280;3510;43.200;27.920;2023-05-12T04:39:13;101611.34;;;20.54;43.54
6942;BME280;3510;43.200;27.920;2023-05-12T04:41:40;101596.06;;;20.71;42.52
6942;BME280;3510;43.200;27.920;2023-05-12T04:44:06;101591.13;;;21.36;40.91
6942;BME280;3510;43.200;27.920;2023-05-12T04:46:33;101600.19;;;20.10;42.62
6942;BME280;3510;43.200;27.920;2023-05-12T04:49:00;101600.47;;;21.05;41.63
6942;BME280;3510;43.200;27.920;2023-05-12T04:51:27;101603.78;;;20.72;41.07
6942;BME280;3510;43.200;27.920;2023-05-12T04:53:55;101594.06;;;20.96;40.58
6942;BME280;3510;43.200;27.920;2023-05-12T04:56:21;101598.25;;;21.58;39.40
6942;BME280;3510;43.200;27.920;2023-05-12T04:58:48;101604.59;;;21.17;39.23
6942;BME280;3510;43.200;27.920;2023-05-12T05:01:14;101600.28;;;21.33;39.04
6942;BME280;3510;43.200;27.920;2023-05-12T05:03:41;101595.44;;;21.37;38.79
6942;BME280;3510;43.200;27.920;2023-05-12T05:06:07;101605.13;;;21.28;38.88
6942;BME280;3510;43.200;27.920;2023-05-12T05:08:33;101609.44;;;21.60;37.67
6942;BME280;3510;43.200;27.920;2023-05-12T05:11:02;101598.63;;;21.49;38.50
6942;BME280;3510;43.200;27.920;2023-05-12T05:13:28;101606.47;;;21.85;36.69
6942;BME280;3510;43.200;27.920;2023-05-12T05:15:55;101602.63;;;20.82;38.19
6942;BME280;3510;43.200;27.920;2023-05-12T05:18:22;101608.22;;;21.86;36.57
6942;BME280;3510;43.200;27.920;2023-05-12T05:20:48;101607.44;;;21.71;36.13
6942;BME280;3510;43.200;27.920;2023-05-12T05:23:15;101611.06;;;22.09;35.93
6942;BME280;3510;43.200;27.920;2023-05-12T05:25:42;101614.78;;;21.97;35.59
6942;BME280;3510;43.200;27.920;2023-05-12T05:28:09;101606.19;;;23.01;34.76
6942;BME280;3510;43.200;27.920;2023-05-12T05:30:36;101615.91;;;22.03;34.79
6942;BME280;3510;43.200;27.920;2023-05-12T05:33:02;101612.44;;;22.18;35.21
6942;BME280;3510;43.200;27.920;2023-05-12T05:35:29;101615.91;;;22.03;34.55
6942;BME280;3510;43.200;27.920;2023-05-12T05:37:56;101611.28;;;21.95;35.67
6942;BME280;3510;43.200;27.920;2023-05-12T05:40:23;101626.09;;;21.68;35.52
6942;BME280;3510;43.200;27.920;2023-05-12T05:42:49;101621.13;;;21.88;34.04
6942;BME280;3510;43.200;27.920;2023-05-12T05:45:17;101617.75;;;22.57;33.30
6942;BME280;3510;43.200;27.920;2023-05-12T05:47:43;101621.38;;;22.97;33.39
6942;BME280;3510;43.200;27.920;2023-05-12T05:50:14;101628.50;;;22.84;33.87
6942;BME280;3510;43.200;27.920;2023-05-12T05:52:40;101625.94;;;22.84;34.31
6942;BME280;3510;43.200;27.920;2023-05-12T05:55:07;101626.81;;;22.85;33.32
6942;BME280;3510;43.200;27.920;2023-05-12T05:57:34;101637.34;;;23.46;34.04
6942;BME280;3510;43.200;27.920;2023-05-12T06:00:00;101636.13;;;23.57;34.50
6942;BME280;3510;43.200;27.920;2023-05-12T06:02:30;101643.34;;;22.38;34.95
6942;BME280;3510;43.200;27.920;2023-05-12T06:04:57;101631.13;;;22.86;34.09
6942;BME280;3510;43.200;27.920;2023-05-12T06:07:25;101644.75;;;22.67;33.41
6942;BME280;3510;43.200;27.920;2023-05-12T06:09:52;101639.91;;;22.21;34.80
6942;BME280;3510;43.200;27.920;2023-05-12T06:12:19;101641.97;;;22.62;33.64
6942;BME280;3510;43.200;27.920;2023-05-12T06:14:46;101632.19;;;22.91;33.82
6942;BME280;3510;43.200;27.920;2023-05-12T06:17:12;101648.09;;;22.30;34.01
6942;BME280;3510;43.200;27.920;2023-05-12T06:19:40;101633.47;;;22.81;33.71
6942;BME280;3510;43.200;27.920;2023-05-12T06:22:08;101632.16;;;22.71;33.81
6942;BME280;3510;43.200;27.920;2023-05-12T06:24:35;101650.88;;;22.35;34.54
6942;BME280;3510;43.200;27.920;2023-05-12T06:27:02;101631.53;;;22.41;34.89
6942;BME280;3510;43.200;27.920;2023-05-12T06:29:28;101638.50;;;22.62;34.91
6942;BME280;3510;43.200;27.920;2023-05-12T06:31:55;101639.88;;;23.07;34.62
6942;BME280;3510;43.200;27.920;2023-05-12T06:34:21;101642.09;;;23.00;35.38
6942;BME280;3510;43.200;27.920;2023-05-12T06:36:49;101639.19;;;23.11;33.32
6942;BME280;3510;43.200;27.920;2023-05-12T06:39:16;101630.53;;;22.91;33.64
6942;BME280;3510;43.200;27.920;2023-05-12T06:41:43;101621.50;;;23.55;32.78
6942;BME280;3510;43.200;27.920;2023-05-12T06:44:11;101607.25;;;23.81;32.80
6942;BME280;3510;43.200;27.920;2023-05-12T06:46:38;101638.56;;;24.12;31.04
6942;BME280;3510;43.200;27.920;2023-05-12T06:49:05;101610.72;;;23.83;31.72
6942;BME280;3510;43.200;27.920;2023-05-12T06:51:33;101640.09;;;24.28;31.81
6942;BME280;3510;43.200;27.920;2023-05-12T06:54:10;101604.66;;;23.05;32.38
6942;BME280;3510;43.200;27.920;2023-05-12T06:56:37;101636.41;;;22.03;34.47
6942;BME280;3510;43.200;27.920;2023-05-12T06:59:04;101618.78;;;22.25;33.94
6942;BME280;3510;43.200;27.920;2023-05-12T07:01:31;101630.06;;;22.46;34.12
6942;BME280;3510;43.200;27.920;2023-05-12T07:03:58;101649.59;;;22.79;34.20
6942;BME280;3510;43.200;27.920;2023-05-12T07:06:25;101640.88;;;22.23;34.83
6942;BME280;3510;43.200;27.920;2023-05-12T07:08:53;101644.19;;;23.65;33.33
6942;BME280;3510;43.200;27.920;2023-05-12T07:11:21;101604.81;;;24.05;32.48
6942;BME280;3510;43.200;27.920;2023-05-12T07:13:50;101633.09;;;24.66;31.67
6942;BME280;3510;43.200;27.920;2023-05-12T07:16:18;101627.25;;;23.69;32.68
6942;BME280;3510;43.200;27.920;2023-05-12T07:18:45;101600.81;;;23.71;32.33
6942;BME280;3510;43.200;27.920;2023-05-12T07:21:12;101631.66;;;24.52;31.76
6942;BME280;3510;43.200;27.920;2023-05-12T07:23:55;101611.09;;;24.74;31.73
6942;BME280;3510;43.200;27.920;2023-05-12T07:26:22;101657.84;;;24.62;31.12
6942;BME280;3510;43.200;27.920;2023-05-12T07:28:49;101645.13;;;24.06;31.66
6942;BME280;3510;43.200;27.920;2023-05-12T07:31:16;101651.31;;;24.71;31.26
6942;BME280;3510;43.200;27.920;2023-05-12T07:33:43;101591.66;;;24.60;31.41
6942;BME280;3510;43.200;27.920;2023-05-12T07:36:23;101667.75;;;24.13;31.03
6942;BME280;3510;43.200;27.920;2023-05-12T07:38:50;101638.53;;;25.17;32.55
6942;BME280;3510;43.200;27.920;2023-05-12T07:50:47;101665.97;;;24.73;30.98
6942;BME280;3510;43.200;27.920;2023-05-12T07:53:13;101627.44;;;25.18;30.81
6942;BME280;3510;43.200;27.920;2023-05-12T07:55:45;101616.19;;;24.95;30.84
6942;BME280;3510;43.200;27.920;2023-05-12T07:58:12;101656.50;;;25.38;31.05
6942;BME280;3510;43.200;27.920;2023-05-12T08:00:39;101656.09;;;25.27;30.53
6942;BME280;3510;43.200;27.920;2023-05-12T08:03:06;101677.56;;;25.05;32.33
6942;BME280;3510;43.200;27.920;2023-05-12T08:05:33;101688.56;;;24.38;32.41
6942;BME280;3510;43.200;27.920;2023-05-12T08:08:01;101681.69;;;25.45;31.23
6942;BME280;3510;43.200;27.920;2023-05-12T08:10:28;101633.56;;;25.44;31.97
6942;BME280;3510;43.200;27.920;2023-05-12T08:12:57;101683.19;;;26.09;33.25
6942;BME280;3510;43.200;27.920;2023-05-12T08:15:24;101665.63;;;26.48;32.44
6942;BME280;3510;43.200;27.920;2023-05-12T08:17:51;101688.59;;;26.93;32.32
6942;BME280;3510;43.200;27.920;2023-05-12T08:20:30;101695.88;;;27.34;31.82
6942;BME280;3510;43.200;27.920;2023-05-12T08:22:57;101693.66;;;27.17;31.95
6942;BME280;3510;43.200;27.920;2023-05-12T08:25:25;101685.28;;;26.99;32.74
6942;BME280;3510;43.200;27.920;2023-05-12T08:27:54;101697.75;;;27.11;31.73
6942;BME280;3510;43.200;27.920;2023-05-12T08:30:24;101642.16;;;26.96;32.64
6942;BME280;3510;43.200;27.920;2023-05-12T08:32:51;101670.78;;;27.30;33.27
6942;BME280;3510;43.200;27.920;2023-05-12T08:35:19;101709.31;;;27.81;33.13
6942;BME280;3510;43.200;27.920;2023-05-12T08:37:46;101608.34;;;26.89;33.30
6942;BME280;3510;43.200;27.920;2023-05-12T08:40:14;101712.28;;;27.34;33.98
6942;BME280;3510;43.200;27.920;2023-05-12T08:45:21;101692.81;;;26.64;34.61
6942;BME280;3510;43.200;27.920;2023-05-12T08:47:49;101710.38;;;26.74;34.32
6942;BME280;3510;43.200;27.920;2023-05-12T08:50:17;101655.81;;;26.40;35.16
6942;BME280;3510;43.200;27.920;2023-05-12T08:52:52;101717.78;;;26.91;35.25
6942;BME280;3510;43.200;27.920;2023-05-12T08:55:34;101718.50;;;26.36;35.00
6942;BME280;3510;43.200;27.920;2023-05-12T08:58:14;101714.31;;;26.90;34.51
6942;BME280;3510;43.200;27.920;2023-05-12T09:00:45;101688.13;;;26.52;34.74
6942;BME280;3510;43.200;27.920;2023-05-12T09:03:12;101714.72;;;26.50;35.23
6942;BME280;3510;43.200;27.920;2023-05-12T09:05:40;101687.03;;;26.71;35.44
6942;BME280;3510;43.200;27.920;2023-05-12T09:08:08;101671.41;;;26.68;34.82
6942;BME280;3510;43.200;27.920;2023-05-12T09:10:37;101704.38;;;27.02;35.23
6942;BME280;3510;43.200;27.920;2023-05-12T09:13:16;101715.72;;;26.29;35.75
6942;BME280;3510;43.200;27.920;2023-05-12T09:15:47;101674.94;;;26.97;33.76
6942;BME280;3510;43.200;27.920;2023-05-12T09:18:17;101706.81;;;26.98;34.28
6942;BME280;3510;43.200;27.920;2023-05-12T09:20:44;101711.22;;;27.00;34.33
6942;BME280;3510;43.200;27.920;2023-05-12T09:23:15;101713.25;;;27.68;33.75
6942;BME280;3510;43.200;27.920;2023-05-12T09:25:43;101713.00;;;27.30;34.77
6942;BME280;3510;43.200;27.920;2023-05-12T09:28:11;101711.22;;;27.00;34.87
6942;BME280;3510;43.200;27.920;2023-05-12T09:30:38;101710.56;;;26.81;35.02
6942;BME280;3510;43.200;27.920;2023-05-12T09:33:09;101709.97;;;27.15;34.71
6942;BME280;3510;43.200;27.920;2023-05-12T09:35:38;101661.72;;;26.36;35.23
6942;BME280;3510;43.200;27.920;2023-05-12T09:38:07;101615.03;;;25.78;35.63
6942;BME280;3510;43.200;27.920;2023-05-12T09:40:34;101697.16;;;26.65;35.17
6942;BME280;3510;43.200;27.920;2023-05-12T09:43:02;101655.31;;;26.50;34.96
6942;BME280;3510;43.200;27.920;2023-05-12T09:45:32;101696.38;;;26.68;35.29
6942;BME280;3510;43.200;27.920;2023-05-12T09:48:08;101698.97;;;26.95;35.16
6942;BME280;3510;43.200;27.920;2023-05-12T09:50:42;101681.69;;;26.41;35.28
6942;BME280;3510;43.200;27.920;2023-05-12T09:53:11;101705.53;;;26.09;35.78
6942;BME280;3510;43.200;27.920;2023-05-12T09:55:38;101694.28;;;26.32;35.69
6942;BME280;3510;43.200;27.920;2023-05-12T09:58:09;101662.75;;;25.91;35.06
6942;BME280;3510;43.200;27.920;2023-05-12T10:00:36;101692.91;;;26.42;36.04
6942;BME280;3510;43.200;27.920;2023-05-12T10:03:10;101654.06;;;26.13;36.20
6942;BME280;3510;43.200;27.920;2023-05-12T10:05:47;101694.41;;;25.86;36.38
6942;BME280;3510;43.200;27.920;2023-05-12T10:08:19;101685.88;;;26.38;35.70
6942;BME280;3510;43.200;27.920;2023-05-12T10:10:50;101654.13;;;26.40;35.00
6942;BME280;3510;43.200;27.920;2023-05-12T10:13:17;101681.91;;;26.22;35.92
6942;BME280;3510;43.200;27.920;2023-05-12T10:15:47;101692.53;;;26.55;35.76
6942;BME280;3510;43.200;27.920;2023-05-12T10:18:16;101697.03;;;26.62;35.50
6942;BME280;3510;43.200;27.920;2023-05-12T10:20:43;101668.44;;;26.30;36.02
6942;BME280;3510;43.200;27.920;2023-05-12T10:23:12;101672.97;;;26.12;35.28
6942;BME280;3510;43.200;27.920;2023-05-12T10:25:40;101701.28;;;26.60;35.35
6942;BME280;3510;43.200;27.920;2023-05-12T10:28:08;101669.06;;;26.49;34.82
6942;BME280;3510;43.200;27.920;2023-05-12T10:30:37;101702.28;;;26.40;35.40
6942;BME280;3510;43.200;27.920;2023-05-12T10:33:05;101650.16;;;26.50;35.41
6942;BME280;3510;43.200;27.920;2023-05-12T10:35:35;101698.97;;;26.68;34.93
6942;BME280;3510;43.200;27.920;2023-05-12T10:38:05;101569.72;;;26.38;34.20
6942;BME280;3510;43.200;27.920;2023-05-12T10:40:33;101696.47;;;27.54;33.52
6942;BME280;3510;43.200;27.920;2023-05-12T10:43:00;101704.09;;;27.20;33.23
6942;BME280;3510;43.200;27.920;2023-05-12T10:45:33;101700.25;;;27.36;33.08
6942;BME280;3510;43.200;27.920;2023-05-12T10:48:04;101694.66;;;26.95;33.67
6942;BME280;3510;43.200;27.920;2023-05-12T10:50:34;101693.78;;;27.50;33.43
6942;BME280;3510;43.200;27.920;2023-05-12T10:53:01;101702.63;;;27.01;34.17
6942;BME280;3510;43.200;27.920;2023-05-12T10:55:30;101694.41;;;26.88;33.80
6942;BME280;3510;43.200;27.920;2023-05-12T10:58:04;101698.03;;;26.40;33.91
6942;BME280;3510;43.200;27.920;2023-05-12T11:00:31;101701.16;;;26.83;34.20
6942;BME280;3510;43.200;27.920;2023-05-12T11:03:11;101649.00;;;26.67;34.05
6942;BME280;3510;43.200;27.920;2023-05-12T11:05:40;101662.44;;;27.40;33.65
6942;BME280;3510;43.200;27.920;2023-05-12T11:08:07;101672.88;;;26.87;32.87
6942;BME280;3510;43.200;27.920;2023-05-12T11:10:34;101660.47;;;26.24;34.19
6942;BME280;3510;43.200;27.920;2023-05-12T11:13:04;101696.28;;;26.92;34.14
6942;BME280;3510;43.200;27.920;2023-05-12T11:15:45;101609.41;;;26.14;33.02
6942;BME280;3510;43.200;27.920;2023-05-12T11:18:19;101666.03;;;26.62;32.39
6942;BME280;3510;43.200;27.920;2023-05-12T11:20:51;101692.03;;;26.94;32.83
6942;BME280;3510;43.200;27.920;2023-05-12T11:23:26;101703.44;;;26.73;33.33
6942;BME280;3510;43.200;27.920;2023-05-12T11:25:56;101661.59;;;26.33;32.57
6942;BME280;3510;43.200;27.920;2023-05-12T11:28:24;101553.56;;;25.19;33.56
6942;BME280;3510;43.200;27.920;2023-05-12T11:30:52;101690.13;;;26.61;32.96
6942;BME280;3510;43.200;27.920;2023-05-12T11:33:22;101623.44;;;26.48;31.79
6942;BME280;3510;43.200;27.920;2023-05-12T11:35:51;101705.97;;;26.72;32.16
6942;BME280;3510;43.200;27.920;2023-05-12T11:38:18;101698.66;;;27.11;32.24
6942;BME280;3510;43.200;27.920;2023-05-12T11:41:28;101675.69;;;27.81;31.02
6942;BME280;3510;43.200;27.920;2023-05-12T11:43:55;101707.19;;;27.96;31.33
6942;BME280;3510;43.200;27.920;2023-05-12T11:46:23;101691.94;;;27.46;31.79
6942;BME280;3510;43.200;27.920;2023-05-12T11:48:55;101696.56;;;27.57;31.88
6942;BME280;3510;43.200;27.920;2023-05-12T11:51:22;101624.66;;;27.45;32.15
6942;BME280;3510;43.200;27.920;2023-05-12T11:53:49;101699.47;;;27.39;32.15
6942;BME280;3510;43.200;27.920;2023-05-12T11:56:17;101677.38;;;27.20;31.46
6942;BME280;3510;43.200;27.920;2023-05-12T11:58:59;101683.13;;;27.40;31.24
6942;BME280;3510;43.200;27.920;2023-05-12T12:01:29;101712.72;;;28.10;31.44
6942;BME280;3510;43.200;27.920;2023-05-12T12:03:58;101698.16;;;28.13;30.58
6942;BME280;3510;43.200;27.920;2023-05-12T12:06:24;101708.69;;;28.53;30.10
6942;BME280;3510;43.200;27.920;2023-05-12T12:08:52;101702.69;;;28.91;29.56
6942;BME280;3510;43.200;27.920;2023-05-12T12:11:21;101690.19;;;29.49;28.61
6942;BME280;3510;43.200;27.920;2023-05-12T12:13:49;101700.34;;;27.99;30.13
6942;BME280;3510;43.200;27.920;2023-05-12T12:16:23;101613.38;;;27.13;30.28
6942;BME280;3510;43.200;27.920;2023-05-12T12:18:50;101689.84;;;27.93;30.74
6942;BME280;3510;43.200;27.920;2023-05-12T12:21:18;101632.97;;;27.06;31.00
6942;BME280;3510;43.200;27.920;2023-05-12T12:23:46;101659.53;;;27.00;30.95
6942;BME280;3510;43.200;27.920;2023-05-12T12:26:14;101638.88;;;27.91;30.58
6942;BME280;3510;43.200;27.920;2023-05-12T12:28:44;101694.22;;;28.61;29.46
6942;BME280;3510;43.200;27.920;2023-05-12T12:31:12;101647.88;;;29.11;28.91
6942;BME280;3510;43.200;27.920;2023-05-12T12:33:40;101660.97;;;28.81;28.16
6942;BME280;3510;43.200;27.920;2023-05-12T12:36:08;101662.59;;;29.12;27.77
6942;BME280;3510;43.200;27.920;2023-05-12T12:38:34;101676.25;;;28.34;29.12
6942;BME280;3510;43.200;27.920;2023-05-12T12:41:02;101657.22;;;27.68;29.21
6942;BME280;3510;43.200;27.920;2023-05-12T12:43:30;101694.31;;;27.99;28.79
6942;BME280;3510;43.200;27.920;2023-05-12T12:45:57;101692.38;;;27.92;28.87
6942;BME280;3510;43.200;27.920;2023-05-12T12:48:24;101699.44;;;27.67;29.44
6942;BME280;3510;43.200;27.920;2023-05-12T12:50:54;101637.22;;;27.33;28.00
6942;BME280;3510;43.200;27.920;2023-05-12T12:53:21;101606.91;;;27.27;28.87
6942;BME280;3510;43.200;27.920;2023-05-12T12:55:49;101680.72;;;27.46;29.34
6942;BME280;3510;43.200;27.920;2023-05-12T12:58:16;101678.13;;;27.17;29.79
6942;BME280;3510;43.200;27.920;2023-05-12T13:00:43;101661.66;;;26.87;30.71
6942;BME280;3510;43.200;27.920;2023-05-12T13:03:10;101686.09;;;27.52;29.99
6942;BME280;3510;43.200;27.920;2023-05-12T13:05:37;101659.19;;;27.47;29.95
6942;BME280;3510;43.200;27.920;2023-05-12T13:08:06;101690.09;;;27.14;29.96
6942;BME280;3510;43.200;27.920;2023-05-12T13:10:33;101662.81;;;27.23;30.20
6942;BME280;3510;43.200;27.920;2023-05-12T13:13:00;101685.03;;;26.90;30.63
6942;BME280;3510;43.200;27.920;2023-05-12T13:15:27;101690.06;;;26.34;31.59
6942;BME280;3510;43.200;27.920;2023-05-12T13:17:56;101684.78;;;26.55;31.52